• Join FlightAware (Why Join?)
  • Login
  • US Flag 
04:59AM EST


 

Airport Tracker/Info


-or-


 

Live Flight TrackerFlight Track Log ✈ AAL2320 ✈ 22-May-2013 ✈ KDFW - KORD

Flight Track Log - Related Links

Times and Time Zones

All times are in EDT time to prevent confusion due to time zone crossing. See the AAL2320 flight status page for this flight to view local times or setup timezone preferences in your user account.

Time Position Orientation Groundspeed Altitude Reporting Facility
EDT Latitude Longitude Course Direction KTS MPH feet Rate Location/Type
06:58AM 32.8833 -97.0333 357° North 193 222 1,100  Level Dallas / Fort Worth TRACON
06:59AM 32.8333 -97.0167 164° South 227 261 2,900 2,150 Climbing Dallas / Fort Worth TRACON
07:00AM 32.7833 -96.9667 140° Southeast 219 252 5,400 2,350 Climbing Dallas / Fort Worth TRACON
07:01AM 32.8581 -96.8000 North  Level FlightAware Approximate
07:01AM 32.8333 -96.9167 40° Northeast 223 257 7,600  Level Dallas / Fort Worth TRACON
07:02AM 32.9791 -96.8000 North  Level FlightAware Approximate
07:03AM 33.1001 -96.8024 357° North  Level FlightAware Approximate
07:03AM 33.0139 -96.8956 North 292 336 10,700  Level Fort Worth Center
07:04AM 33.1161 -96.8803 North 349 402 13,400 2,450 Climbing Fort Worth Center
07:05AM 33.2350 -96.8597 North 384 442 15,600 2,150 Climbing Fort Worth Center
07:06AM 33.3353 -96.8442 North 397 457 17,700 2,050 Climbing Fort Worth Center
07:07AM 33.4603 -96.8158 11° North 412 474 19,700 1,800 Climbing Fort Worth Center
07:08AM 33.5603 -96.7528 28° Northeast 429 494 21,300 1,650 Climbing Fort Worth Center
07:09AM 33.6828 -96.6747 28° Northeast 454 522 23,000 1,400 Climbing Fort Worth Center
07:10AM 33.7911 -96.6086 27° Northeast 461 531 24,100 1,250 Climbing Fort Worth Center
07:11AM 33.9072 -96.5325 29° Northeast 466 536 25,500 1,450 Climbing Fort Worth Center
07:12AM 34.0256 -96.4511 30° Northeast 471 542 27,000 1,650 Climbing Fort Worth Center
07:13AM 34.1356 -96.3672 32° Northeast 476 548 28,800 1,650 Climbing Fort Worth Center
07:14AM 34.2456 -96.2778 34° Northeast 476 548 30,300 1,250 Climbing Fort Worth Center
07:15AM 34.3553 -96.1908 33° Northeast 476 548 31,300 1,000 Climbing Fort Worth Center
07:16AM 34.4647 -96.0961 36° Northeast 476 548 32,300 850 Climbing Fort Worth Center
07:17AM 34.5767 -96.0086 33° Northeast 476 548 33,000 350 Climbing Fort Worth Center
07:18AM 34.6861 -95.9161 35° Northeast 476 548 33,000  Level Fort Worth Center
07:19AM 34.7956 -95.8256 34° Northeast 476 548 33,000  Level Fort Worth Center
07:21AM 34.9778 -95.6664 36° Northeast 481 554 33,000  Level Memphis Center
07:22AM 35.0819 -95.5689 37° Northeast 471 542 33,000  Level Memphis Center
07:23AM 35.1861 -95.4714 37° Northeast 471 542 33,000  Level Memphis Center
07:24AM 35.2903 -95.3708 38° Northeast 471 542 33,000  Level Memphis Center
07:25AM 35.3967 -95.2703 38° Northeast 471 542 33,000  Level Memphis Center
07:26AM 35.5006 -95.1717 38° Northeast 476 548 33,000  Level Memphis Center
07:27AM 35.6047 -95.0681 39° Northeast 476 548 33,000  Level Memphis Center
07:28AM 35.7086 -94.9667 38° Northeast 476 548 33,000  Level Memphis Center
07:29AM 35.8144 -94.8675 37° Northeast 476 548 33,000  Level Memphis Center
07:30AM 35.9181 -94.7656 39° Northeast 476 548 33,000  Level Memphis Center
07:32AM 36.1422 -94.5456 38° Northeast 468 539 33,000  Level Kansas City Center
07:33AM 36.2456 -94.4439 38° Northeast 472 543 33,000  Level Kansas City Center
07:34AM 36.3514 -94.3397 38° Northeast 480 552 33,000  Level Kansas City Center
07:35AM 36.4572 -94.2350 39° Northeast 485 558 33,000  Level Kansas City Center
07:36AM 36.5644 -94.1300 38° Northeast 488 562 33,000  Level Kansas City Center
07:37AM 36.6711 -94.0236 39° Northeast 490 564 33,000  Level Kansas City Center
07:38AM 36.7775 -93.9189 38° Northeast 489 563 33,000  Level Kansas City Center
07:39AM 36.8831 -93.8111 39° Northeast 489 563 33,000  Level Kansas City Center
07:40AM 36.9961 -93.7003 38° Northeast 492 566 33,000  Level Kansas City Center
07:41AM 37.1044 -93.5917 39° Northeast 495 570 33,000  Level Kansas City Center
07:42AM 37.2122 -93.4814 39° Northeast 498 573 33,000  Level Kansas City Center
07:43AM 37.3217 -93.3694 39° Northeast 502 578 33,000  Level Kansas City Center
07:44AM 37.4331 -93.2608 38° Northeast 504 580 33,000  Level Kansas City Center
07:45AM 37.5478 -93.1575 36° Northeast 504 580 33,000  Level Kansas City Center
07:46AM 37.6631 -93.0503 36° Northeast 508 585 33,000  Level Kansas City Center
07:47AM 37.8019 -92.9217 36° Northeast 511 588 33,000  Level Kansas City Center
07:48AM 37.9178 -92.8122 37° Northeast 513 590 33,000  Level Kansas City Center
07:49AM 38.0211 -92.7150 37° Northeast 514 592 33,000  Level Kansas City Center
07:51AM 38.1367 -92.6069 36° Northeast 516 594 33,000  Level Kansas City Center
07:52AM 38.2464 -92.5022 37° Northeast 516 594 33,000  Level Kansas City Center
07:53AM 38.3867 -92.3694 37° Northeast 517 595 33,000  Level Kansas City Center
07:54AM 38.5033 -92.2578 37° Northeast 518 596 33,000  Level Kansas City Center
07:55AM 38.6203 -92.1453 37° Northeast 521 600 33,000  Level Kansas City Center
07:56AM 38.7383 -92.0311 37° Northeast 526 605 33,000  Level Kansas City Center
07:57AM 38.8572 -91.9164 37° Northeast 530 610 33,000  Level Kansas City Center
07:58AM 38.9767 -91.8011 37° Northeast 534 615 33,000  Level Kansas City Center
07:59AM 39.0986 -91.6836 37° Northeast 538 619 33,000  Level Kansas City Center
08:00AM 39.2189 -91.5650 37° Northeast 540 621 33,000  Level Kansas City Center
08:01AM 39.3419 -91.4444 37° Northeast 547 629 33,000  Level Kansas City Center
08:02AM 39.4642 -91.3244 37° Northeast 550 633 33,000  Level Kansas City Center
08:03AM 39.5853 -91.2039 37° Northeast 549 632 33,000  Level Kansas City Center
08:04AM 39.7053 -91.0850 37° Northeast 546 628 33,000  Level Kansas City Center
08:05AM 39.8167 -90.9714 38° Northeast 546 628 33,000  Level Kansas City Center
08:06AM 39.9392 -90.8503 37° Northeast 550 633 33,000  Level Kansas City Center
08:07AM 40.0839 -90.7019 38° Northeast 551 634 33,000  Level Kansas City Center
08:08AM 40.2047 -90.5800 38° Northeast 549 632 33,000  Level Kansas City Center
08:09AM 40.3239 -90.4589 38° Northeast 545 627 33,000  Level Kansas City Center
08:09AM 40.3906 -90.3794 42° Northeast 542 624 33,000 -840 Level Chicago Center
08:10AM 40.4917 -90.2267 49° Northeast 527 606 31,600 -1,707 Descending Chicago Center
08:11AM 40.5903 -90.0839 48° Northeast 527 606 29,500 -2,049 Descending Chicago Center
08:13AM 40.6889 -89.9414 48° Northeast 529 609 27,400 -1,935 Descending Chicago Center
08:14AM 40.7847 -89.7942 49° Northeast 530 610 25,500 -1,597 Descending Chicago Center
08:15AM 40.8825 -89.6544 47° Northeast 518 596 24,100 -726 Descending Chicago Center
08:16AM 40.9842 -89.5042 48° Northeast 517 595 24,000 -439 Descending Chicago Center
08:17AM 41.0778 -89.3656 48° Northeast 508 585 23,200 -1,805 Descending Chicago Center
08:18AM 41.1692 -89.2283 48° Northeast 499 574 20,300 -3,145 Descending Chicago Center
08:19AM 41.2603 -89.0897 49° Northeast 450 518 16,700 -3,387 Descending Chicago Center
08:20AM 41.3381 -88.9708 49° Northeast 428 493 13,300 -2,565 Descending Chicago Center
08:21AM 41.4117 -88.8597 49° Northeast 405 466 11,400 -1,113 Descending Chicago Center
08:22AM 41.4942 -88.7344 49° Northeast 378 435 11,000 -145 Descending Chicago Center
08:23AM 41.5481 -88.6147 59° Northeast 377 434 11,100 48 Climbing Chicago Center
08:24AM 41.5972 -88.4919 62° Northeast 374 430 11,100 -48 Level Chicago Center
08:25AM 41.6594 -88.3794 53° Northeast 374 430 11,000 -48 Descending Chicago Center
08:26AM 41.7236 -88.2689 52° Northeast 375 432 11,000 -290 Level Chicago Center
08:27AM 41.7869 -88.1594 52° Northeast 372 428 10,400 -484 Descending Chicago Center
08:28AM 41.8431 -88.0458 56° Northeast 366 421 10,000 -194 Descending Chicago Center
08:29AM 41.8686 -87.8886 78° East 359 413 10,000 -532 Level Chicago Center
08:30AM 41.8853 -87.7764 79° East 314 361 8,900 -1,161 Descending Chicago Center
08:31AM 41.8833 -87.6669 91° East 297 342 7,600 -1,258 Descending Chicago Center
08:32AM 41.8828 -87.5564 90° East 297 342 6,300 -1,210 Descending Chicago Center
08:33AM 41.8825 -87.4506 90° East 288 331 5,100 -629 Descending Chicago Center
08:34AM 41.8978 -87.3536 78° East 279 321 5,000 -48 Descending Chicago Center
08:35AM 41.9658 -87.3636 354° North 242 278 5,000  Level Chicago Center
08:36AM 41.9686 -87.4444 273° West 223 257 5,000  Level Chicago Center
08:37AM 41.9681 -87.5231 269° West 215 247 5,000 -145 Level Chicago Center
08:38AM 41.9689 -87.5997 271° West 209 241 4,700 -290 Descending Chicago Center